createdAt,value
2023-11-05T00:00:54.400Z,2.14
2023-11-05T00:01:57.789Z,3.14
2023-11-05T00:03:01.039Z,3.57
2023-11-05T00:04:04.546Z,2.00
2023-11-05T00:05:07.996Z,2.29
2023-11-05T00:06:11.157Z,3.43
2023-11-05T00:07:14.530Z,1.67
2023-11-05T00:08:18.049Z,3.43
2023-11-05T00:09:21.308Z,3.71
2023-11-05T00:10:24.740Z,2.00
2023-11-05T00:11:27.843Z,2.71
2023-11-05T00:12:31.238Z,2.67
2023-11-05T00:13:34.460Z,3.29
2023-11-05T00:14:37.722Z,5.00
2023-11-05T00:15:40.903Z,4.14
2023-11-05T00:16:44.302Z,2.33
2023-11-05T00:17:47.620Z,2.00
2023-11-05T00:18:50.837Z,3.29
2023-11-05T00:19:54.128Z,3.17
2023-11-05T00:20:57.435Z,2.29
2023-11-05T00:22:01.161Z,2.57
2023-11-05T00:23:04.492Z,5.43
2023-11-05T00:24:07.690Z,6.43
2023-11-05T00:25:10.888Z,2.71
2023-11-05T00:26:14.223Z,2.43
2023-11-05T00:27:17.537Z,3.43
2023-11-05T00:28:20.884Z,3.14
2023-11-05T00:29:23.912Z,3.57
2023-11-05T00:30:27.088Z,4.00
2023-11-05T00:31:30.172Z,3.71
2023-11-05T00:32:33.451Z,3.00
2023-11-05T00:33:36.625Z,4.71
2023-11-05T00:34:39.907Z,4.86
2023-11-05T00:35:42.978Z,2.43
2023-11-05T00:36:46.194Z,2.29
2023-11-05T00:37:49.143Z,3.00
2023-11-05T00:38:52.218Z,3.67
2023-11-05T00:39:55.406Z,2.43
2023-11-05T00:40:58.345Z,3.00
2023-11-05T00:42:01.372Z,4.67
2023-11-05T00:43:04.451Z,5.00
2023-11-05T00:44:07.523Z,3.29
2023-11-05T00:45:10.571Z,3.57
2023-11-05T00:46:13.599Z,3.33
2023-11-05T00:47:16.655Z,3.43
2023-11-05T00:48:19.647Z,2.29
2023-11-05T00:49:22.651Z,2.83
2023-11-05T00:50:25.703Z,3.83
2023-11-05T00:51:28.870Z,4.00
2023-11-05T00:52:32.122Z,3.57
2023-11-05T00:53:35.238Z,3.00
2023-11-05T00:54:38.414Z,3.86
2023-11-05T00:55:41.393Z,3.00
2023-11-05T00:56:44.471Z,2.67
2023-11-05T00:57:47.551Z,4.57
2023-11-05T00:58:50.627Z,5.00
2023-11-05T00:59:53.730Z,3.71
2023-11-05T01:00:56.999Z,2.67
2023-11-05T01:02:00.201Z,3.29
2023-11-05T01:03:03.209Z,3.00
2023-11-05T01:04:06.481Z,2.33
2023-11-05T01:05:09.671Z,1.00
2023-11-05T01:06:12.714Z,2.83
2023-11-05T01:07:16.546Z,5.57
2023-11-05T01:08:19.471Z,3.29
2023-11-05T01:09:22.513Z,2.43
2023-11-05T01:10:25.575Z,4.17
2023-11-05T01:11:28.614Z,4.43
2023-11-05T01:12:31.694Z,3.43
2023-11-05T01:13:34.812Z,3.57
2023-11-05T01:14:37.916Z,4.00
2023-11-05T01:15:40.938Z,4.00
2023-11-05T01:16:44.061Z,2.43
2023-11-05T01:17:47.219Z,3.00
2023-11-05T01:18:50.306Z,2.71
2023-11-05T01:19:53.456Z,1.86
2023-11-05T01:20:56.533Z,3.14
2023-11-05T01:21:59.727Z,3.33
2023-11-05T01:23:02.894Z,2.00
2023-11-05T01:24:06.091Z,4.67
2023-11-05T01:25:09.069Z,5.14
2023-11-05T01:26:12.126Z,4.29
2023-11-05T01:27:15.240Z,2.71
2023-11-05T01:28:18.528Z,2.00
2023-11-05T01:29:21.713Z,2.29
2023-11-05T01:30:24.777Z,2.43
2023-11-05T01:31:27.834Z,3.83
2023-11-05T01:32:30.937Z,4.33
2023-11-05T01:33:33.913Z,2.57
2023-11-05T01:34:36.998Z,2.00
2023-11-05T01:35:40.174Z,2.33
2023-11-05T01:36:43.231Z,2.33
2023-11-05T01:37:46.278Z,0.83
2023-11-05T01:38:49.251Z,1.00
2023-11-05T01:39:52.268Z,2.29
2023-11-05T01:40:55.374Z,3.33
2023-11-05T01:41:58.534Z,2.43
2023-11-05T01:43:01.734Z,3.00
2023-11-05T01:44:04.547Z,4.43
2023-11-05T01:45:07.666Z,3.83
2023-11-05T01:46:10.570Z,3.50
2023-11-05T01:47:13.741Z,3.14
2023-11-05T01:48:16.843Z,2.43
2023-11-05T01:49:20.006Z,3.86
2023-11-05T01:50:22.970Z,4.00
2023-11-05T01:51:25.945Z,4.33
2023-11-05T01:52:29.159Z,3.29
2023-11-05T01:53:32.200Z,3.14
2023-11-05T01:54:35.241Z,2.14
2023-11-05T01:55:38.283Z,3.33
2023-11-05T01:56:41.324Z,4.00
2023-11-05T01:57:44.602Z,3.14
2023-11-05T01:58:47.558Z,3.00
2023-11-05T01:59:50.576Z,2.57
2023-11-05T02:00:53.653Z,3.17
2023-11-05T02:01:56.757Z,4.14
2023-11-05T02:02:59.788Z,2.67
2023-11-05T02:04:02.958Z,3.00
2023-11-05T02:05:06.111Z,2.29
2023-11-05T02:06:09.359Z,1.14
2023-11-05T02:07:12.412Z,2.29
2023-11-05T02:08:15.517Z,3.57
2023-11-05T02:09:18.493Z,3.00
2023-11-05T02:10:21.539Z,2.67
2023-11-05T02:11:24.550Z,2.14
2023-11-05T02:12:27.591Z,2.57
2023-11-05T02:13:30.639Z,2.33
2023-11-05T02:14:33.596Z,3.00
2023-11-05T02:15:36.558Z,2.14
2023-11-05T02:16:39.691Z,1.14
2023-11-05T02:17:42.857Z,1.33
2023-11-05T02:18:45.992Z,2.17
2023-11-05T02:19:48.914Z,2.00
2023-11-05T02:20:51.845Z,2.86
2023-11-05T02:21:54.931Z,2.33
2023-11-05T02:22:58.008Z,2.67
2023-11-05T02:24:01.148Z,1.57
2023-11-05T02:25:04.476Z,1.00
2023-11-05T02:26:07.599Z,1.00
2023-11-05T02:27:10.989Z,2.00
2023-11-05T02:28:14.430Z,3.57
2023-11-05T02:29:17.811Z,3.43
2023-11-05T02:30:21.195Z,4.14
2023-11-05T02:31:24.637Z,3.57
2023-11-05T02:32:27.945Z,2.00
2023-11-05T02:33:31.243Z,2.86
2023-11-05T02:34:34.853Z,3.57
2023-11-05T02:35:38.194Z,2.43
2023-11-05T02:36:41.580Z,2.00
2023-11-05T02:37:44.861Z,2.14
2023-11-05T02:38:48.106Z,0.57
2023-11-05T02:39:51.601Z,0.86
2023-11-05T02:40:54.926Z,2.00
2023-11-05T02:41:58.275Z,1.86
2023-11-05T02:43:01.533Z,1.00
2023-11-05T02:44:05.080Z,2.29
2023-11-05T02:45:08.484Z,3.86
2023-11-05T02:46:11.684Z,1.71
2023-11-05T02:47:14.859Z,1.43
2023-11-05T02:48:18.211Z,2.00
2023-11-05T02:49:21.596Z,1.57
2023-11-05T02:50:24.793Z,1.00
2023-11-05T02:51:28.118Z,2.14
2023-11-05T02:52:31.640Z,3.14
2023-11-05T02:53:34.948Z,2.00
2023-11-05T02:54:38.270Z,1.67
2023-11-05T02:55:41.585Z,2.83
2023-11-05T02:56:44.846Z,2.57
2023-11-05T02:57:48.422Z,2.57
2023-11-05T02:58:52.097Z,2.00
2023-11-05T02:59:55.486Z,2.00
2023-11-05T03:00:58.760Z,1.57
2023-11-05T03:02:02.245Z,1.00
2023-11-05T03:03:05.586Z,1.43
2023-11-05T03:04:08.964Z,1.86
2023-11-05T03:05:12.492Z,3.00
2023-11-05T03:06:15.936Z,3.00
2023-11-05T03:07:19.222Z,1.57
2023-11-05T03:08:22.802Z,1.00
2023-11-05T03:09:26.306Z,1.43
2023-11-05T03:10:29.495Z,1.14
2023-11-05T03:11:32.874Z,1.29
2023-11-05T03:12:36.265Z,1.29
2023-11-05T03:13:39.585Z,1.86
2023-11-05T03:14:42.918Z,2.86
2023-11-05T03:15:46.093Z,2.33
2023-11-05T03:16:49.388Z,2.67
2023-11-05T03:17:52.855Z,1.67
2023-11-05T03:18:56.058Z,1.00
2023-11-05T03:19:59.341Z,1.43
2023-11-05T03:21:02.632Z,2.00
2023-11-05T03:22:05.892Z,1.14
2023-11-05T03:23:09.501Z,1.43
2023-11-05T03:24:12.659Z,1.57
2023-11-05T03:25:15.746Z,1.83
2023-11-05T03:26:19.023Z,2.00
2023-11-05T03:27:22.194Z,1.57
2023-11-05T03:28:25.685Z,1.29
2023-11-05T03:29:29.105Z,1.43
2023-11-05T03:30:32.362Z,2.00
2023-11-05T03:31:35.772Z,1.57
2023-11-05T03:32:39.292Z,1.43
2023-11-05T03:33:42.735Z,1.57
2023-11-05T03:34:46.077Z,1.00
2023-11-05T03:35:49.639Z,0.86
2023-11-05T03:36:52.915Z,0.57
2023-11-05T03:37:56.365Z,0.00
2023-11-05T03:38:59.688Z,0.33
2023-11-05T03:40:03.124Z,1.43
2023-11-05T03:41:06.603Z,2.14
2023-11-05T03:42:09.809Z,1.71
2023-11-05T03:43:13.890Z,2.14
2023-11-05T03:44:17.343Z,2.00
2023-11-05T03:45:21.131Z,2.57
2023-11-05T03:46:24.561Z,2.62
2023-11-05T03:47:27.693Z,2.14
2023-11-05T03:48:31.216Z,1.00
2023-11-05T03:49:34.619Z,0.86
2023-11-05T03:50:38.309Z,1.29
2023-11-05T03:51:41.961Z,1.86
2023-11-05T03:52:45.561Z,2.50
2023-11-05T03:53:49.138Z,1.57
2023-11-05T03:54:52.942Z,2.00
2023-11-05T03:55:56.723Z,1.71
2023-11-05T03:57:00.127Z,0.00
2023-11-05T03:58:03.680Z,0.43
2023-11-05T03:59:11.640Z,1.43
2023-11-05T04:00:14.561Z,1.75
2023-11-05T04:01:18.027Z,2.50
2023-11-05T04:02:21.498Z,1.14
2023-11-05T04:03:24.854Z,1.57
2023-11-05T04:04:28.054Z,2.43
2023-11-05T04:05:31.346Z,1.43
2023-11-05T04:06:34.681Z,2.00
2023-11-05T04:07:37.865Z,2.00
2023-11-05T04:08:41.296Z,2.00
2023-11-05T04:09:44.760Z,1.57
2023-11-05T04:10:48.198Z,2.29
2023-11-05T04:11:51.431Z,3.14
2023-11-05T04:12:55.414Z,1.71
2023-11-05T04:13:58.829Z,1.00
2023-11-05T04:15:01.965Z,1.29
2023-11-05T04:16:05.298Z,3.29
2023-11-05T04:17:08.581Z,2.14
2023-11-05T04:18:11.973Z,1.43
2023-11-05T04:19:15.309Z,1.43
2023-11-05T04:20:18.532Z,1.43
2023-11-05T04:21:22.125Z,1.57
2023-11-05T04:22:25.439Z,1.00
2023-11-05T04:23:28.752Z,1.00
2023-11-05T04:24:31.921Z,1.43
2023-11-05T04:25:35.316Z,1.00
2023-11-05T04:26:38.653Z,1.43
2023-11-05T04:27:41.834Z,1.57
2023-11-05T04:28:45.101Z,1.00
2023-11-05T04:29:48.390Z,2.00
2023-11-05T04:30:51.576Z,1.14
2023-11-05T04:31:55.268Z,1.00
2023-11-05T04:32:58.609Z,1.43
2023-11-05T04:34:02.278Z,2.00
2023-11-05T04:35:05.746Z,1.14
2023-11-05T04:36:09.322Z,0.43
2023-11-05T04:37:12.665Z,1.75
2023-11-05T04:38:15.888Z,2.57
2023-11-05T04:39:19.176Z,1.67
2023-11-05T04:40:22.596Z,2.57
2023-11-05T04:41:25.751Z,3.14
2023-11-05T04:42:29.027Z,1.71
2023-11-05T04:43:32.341Z,2.00
2023-11-05T04:44:35.597Z,1.29
2023-11-05T04:45:39.083Z,1.00
2023-11-05T04:46:42.524Z,1.86
2023-11-05T04:47:45.919Z,2.57
2023-11-05T04:48:49.217Z,2.00
2023-11-05T04:49:52.529Z,1.67
2023-11-05T04:50:55.860Z,1.00
2023-11-05T04:51:59.310Z,1.43
2023-11-05T04:53:02.700Z,1.14
2023-11-05T04:54:05.981Z,0.00
2023-11-05T04:55:09.163Z,0.86
2023-11-05T04:56:12.475Z,1.57
2023-11-05T04:57:15.740Z,1.00
2023-11-05T04:58:19.024Z,1.14
2023-11-05T04:59:22.097Z,1.00
2023-11-05T05:00:25.420Z,1.43
2023-11-05T05:01:28.589Z,2.00
2023-11-05T05:02:31.751Z,1.57
2023-11-05T05:03:34.903Z,1.86
2023-11-05T05:04:38.108Z,2.33
2023-11-05T05:05:41.379Z,1.33
2023-11-05T05:06:44.686Z,1.67
2023-11-05T05:07:48.195Z,1.00
2023-11-05T05:08:51.750Z,1.00
2023-11-05T05:09:55.030Z,1.00
2023-11-05T05:10:58.520Z,1.00
2023-11-05T05:12:01.804Z,1.43
2023-11-05T05:13:05.111Z,1.67
2023-11-05T05:14:08.375Z,1.00
2023-11-05T05:15:11.518Z,1.00
2023-11-05T05:16:14.848Z,1.00
2023-11-05T05:17:17.928Z,1.86
2023-11-05T05:18:21.461Z,2.14
2023-11-05T05:19:24.732Z,0.43
2023-11-05T05:20:27.909Z,0.57
2023-11-05T05:21:31.235Z,1.14
2023-11-05T05:22:34.833Z,1.00
2023-11-05T05:23:38.340Z,1.00
2023-11-05T05:24:41.626Z,1.14
2023-11-05T05:25:44.868Z,1.00
2023-11-05T05:26:48.094Z,0.57
2023-11-05T05:27:51.527Z,0.86
2023-11-05T05:28:54.656Z,1.43
2023-11-05T05:29:57.956Z,1.57
2023-11-05T05:31:01.231Z,1.43
2023-11-05T05:32:04.516Z,3.29
2023-11-05T05:33:07.877Z,2.86
2023-11-05T05:34:11.384Z,0.43
2023-11-05T05:35:15.057Z,1.00
2023-11-05T05:36:18.392Z,1.00
2023-11-05T05:37:21.568Z,1.86
2023-11-05T05:38:24.730Z,2.43
2023-11-05T05:39:28.018Z,1.29
2023-11-05T05:40:31.239Z,0.57
2023-11-05T05:41:34.594Z,0.71
2023-11-05T05:42:38.100Z,1.43
2023-11-05T05:43:41.591Z,1.14
2023-11-05T05:44:44.846Z,0.00
2023-11-05T05:45:48.127Z,0.33
2023-11-05T05:46:51.424Z,1.33
2023-11-05T05:47:54.652Z,2.14
2023-11-05T05:48:58.020Z,1.00
2023-11-05T05:50:01.231Z,0.00
2023-11-05T05:51:04.448Z,0.67
2023-11-05T05:52:07.659Z,1.67
2023-11-05T05:53:11.019Z,1.67
2023-11-05T05:54:14.210Z,3.00
2023-11-05T05:55:17.261Z,2.00
2023-11-05T05:56:20.574Z,2.00
2023-11-05T05:57:23.849Z,2.14
2023-11-05T05:58:27.155Z,1.00
2023-11-05T05:59:30.445Z,1.29
2023-11-05T06:00:33.478Z,1.14
2023-11-05T06:01:36.941Z,1.57
2023-11-05T06:02:40.196Z,1.43
2023-11-05T06:03:43.369Z,1.14
2023-11-05T06:04:46.796Z,0.86
2023-11-05T06:05:50.178Z,2.00
2023-11-05T06:06:53.521Z,0.86
2023-11-05T06:07:56.806Z,0.00
2023-11-05T06:09:00.386Z,0.43
2023-11-05T06:10:03.571Z,1.43
2023-11-05T06:11:06.833Z,1.86
2023-11-05T06:12:10.274Z,1.43
2023-11-05T06:13:13.542Z,1.57
2023-11-05T06:14:16.918Z,1.00
2023-11-05T06:15:20.086Z,1.29
2023-11-05T06:16:23.428Z,1.00
2023-11-05T06:17:26.669Z,0.57
2023-11-05T06:18:29.921Z,0.00
2023-11-05T06:19:33.147Z,0.43
2023-11-05T06:20:36.717Z,0.71
2023-11-05T06:21:39.856Z,0.57
2023-11-05T06:22:43.091Z,0.57
2023-11-05T06:23:46.478Z,0.43
2023-11-05T06:24:49.736Z,1.43
2023-11-05T06:25:53.040Z,1.57
2023-11-05T06:26:56.316Z,1.00
2023-11-05T06:27:59.814Z,1.00
2023-11-05T06:29:02.986Z,0.00
2023-11-05T06:30:06.282Z,0.43
2023-11-05T06:31:09.523Z,1.43
2023-11-05T06:32:12.618Z,1.57
2023-11-05T06:33:15.984Z,1.00
2023-11-05T06:34:19.296Z,1.43
2023-11-05T06:35:22.611Z,1.14
2023-11-05T06:36:25.977Z,1.29
2023-11-05T06:37:29.140Z,2.00
2023-11-05T06:38:32.338Z,1.00
2023-11-05T06:39:35.735Z,0.57
2023-11-05T06:40:39.027Z,0.00
2023-11-05T06:41:42.310Z,0.33
2023-11-05T06:42:45.617Z,0.67
2023-11-05T06:43:48.991Z,0.00
2023-11-05T06:44:52.144Z,0.00
2023-11-05T06:45:55.328Z,0.43
2023-11-05T06:46:58.624Z,0.67
2023-11-05T06:48:01.872Z,0.67
2023-11-05T06:49:05.065Z,1.57
2023-11-05T06:50:08.447Z,2.00
2023-11-05T06:51:11.755Z,3.29
2023-11-05T06:52:15.029Z,2.57
2023-11-05T06:53:18.334Z,1.14
2023-11-05T06:54:21.469Z,0.86
2023-11-05T06:55:24.930Z,1.57
2023-11-05T06:56:28.280Z,1.14
2023-11-05T06:57:31.569Z,0.43
2023-11-05T06:58:35.246Z,0.43
2023-11-05T06:59:38.618Z,0.43
2023-11-05T07:00:41.912Z,1.43
2023-11-05T07:01:45.428Z,1.57
2023-11-05T07:02:49.046Z,1.00
2023-11-05T07:03:52.569Z,1.14
2023-11-05T07:04:56.018Z,1.00
2023-11-05T07:05:59.381Z,0.71
2023-11-05T07:07:02.760Z,1.00
2023-11-05T07:08:05.944Z,1.00
2023-11-05T07:09:09.449Z,1.00
2023-11-05T07:10:12.873Z,0.57
2023-11-05T07:11:16.198Z,0.00
2023-11-05T07:12:19.392Z,0.43
2023-11-05T07:13:22.630Z,1.00
2023-11-05T07:14:25.853Z,1.43
2023-11-05T07:15:29.005Z,1.57
2023-11-05T07:16:32.225Z,1.33
2023-11-05T07:17:35.551Z,1.67
2023-11-05T07:18:39.227Z,1.00
2023-11-05T07:19:42.402Z,0.57
2023-11-05T07:20:45.565Z,0.43
2023-11-05T07:21:48.829Z,1.43
2023-11-05T07:22:51.958Z,1.57
2023-11-05T07:23:55.130Z,1.17
2023-11-05T07:24:58.207Z,1.67
2023-11-05T07:26:01.347Z,1.43
2023-11-05T07:27:04.705Z,1.57
2023-11-05T07:28:07.948Z,1.43
2023-11-05T07:29:12.724Z,1.57
2023-11-05T07:30:15.402Z,2.50
2023-11-05T07:31:18.758Z,2.14
2023-11-05T07:32:22.128Z,1.43
2023-11-05T07:33:25.623Z,1.71
2023-11-05T07:34:28.955Z,2.00
2023-11-05T07:35:32.045Z,1.57
2023-11-05T07:36:35.340Z,1.33
2023-11-05T07:37:38.646Z,1.33
2023-11-05T07:38:41.901Z,1.00
2023-11-05T07:39:44.982Z,0.67
2023-11-05T07:40:48.398Z,0.00
2023-11-05T07:41:51.539Z,0.43
2023-11-05T07:42:54.739Z,1.00
2023-11-05T07:43:57.915Z,0.57
2023-11-05T07:45:01.300Z,1.00
2023-11-05T07:46:04.481Z,1.29
2023-11-05T07:47:07.663Z,0.57
2023-11-05T07:48:10.879Z,0.00
2023-11-05T07:49:14.257Z,0.00
2023-11-05T07:50:17.379Z,0.00
2023-11-05T07:51:20.906Z,0.86
2023-11-05T07:52:25.477Z,1.57
2023-11-05T07:53:28.496Z,1.00
2023-11-05T07:54:31.997Z,1.86
2023-11-05T07:55:35.586Z,2.00
2023-11-05T07:56:39.176Z,0.57
2023-11-05T07:57:42.457Z,0.43
2023-11-05T07:58:46.200Z,0.57
2023-11-05T07:59:49.300Z,0.00
2023-11-05T08:00:52.710Z,0.33
2023-11-05T08:01:55.999Z,0.29
2023-11-05T08:02:59.343Z,0.00
2023-11-05T08:04:02.680Z,0.43
2023-11-05T08:05:06.163Z,1.86
2023-11-05T08:06:09.443Z,1.57
2023-11-05T08:07:12.645Z,0.57
2023-11-05T08:08:15.925Z,1.43
2023-11-05T08:09:19.299Z,1.57
2023-11-05T08:10:22.753Z,1.43
2023-11-05T08:11:25.979Z,2.00
2023-11-05T08:12:29.150Z,1.57
2023-11-05T08:13:32.588Z,1.43
2023-11-05T08:14:35.819Z,2.00
2023-11-05T08:15:39.148Z,1.57
2023-11-05T08:16:42.434Z,1.00
2023-11-05T08:17:45.617Z,1.00
2023-11-05T08:18:48.954Z,1.43
2023-11-05T08:19:52.320Z,1.57
2023-11-05T08:20:55.653Z,0.00
2023-11-05T08:21:59.019Z,0.43
2023-11-05T08:23:02.207Z,1.00
2023-11-05T08:24:05.285Z,1.17
2023-11-05T08:25:08.348Z,1.43
2023-11-05T08:26:11.539Z,2.43
2023-11-05T08:27:14.722Z,1.71
2023-11-05T08:28:25.482Z,0.43
2023-11-05T08:29:22.227Z,0.50
2023-11-05T08:30:25.495Z,0.00
2023-11-05T08:31:28.725Z,0.00
2023-11-05T08:32:32.011Z,0.33
2023-11-05T08:33:35.288Z,1.00
2023-11-05T08:34:38.601Z,0.67
2023-11-05T08:35:41.779Z,0.00
2023-11-05T08:36:45.099Z,0.33
2023-11-05T08:37:48.247Z,1.00
2023-11-05T08:38:51.462Z,0.43
2023-11-05T08:39:54.956Z,0.43
2023-11-05T08:41:01.119Z,1.00
2023-11-05T08:42:04.495Z,1.50
2023-11-05T08:43:07.774Z,1.57
2023-11-05T08:44:10.966Z,1.00
2023-11-05T08:45:14.344Z,0.71
2023-11-05T08:46:17.770Z,0.29
2023-11-05T08:47:21.100Z,0.29
2023-11-05T08:48:24.608Z,1.00
2023-11-05T08:49:27.922Z,1.86
2023-11-05T08:50:31.286Z,2.71
2023-11-05T08:51:34.727Z,1.00
2023-11-05T08:52:38.441Z,1.43
2023-11-05T08:53:41.644Z,1.12
2023-11-05T08:54:44.986Z,0.43
2023-11-05T08:55:48.741Z,1.43
2023-11-05T08:56:52.117Z,1.37
2023-11-05T08:57:55.198Z,0.67
2023-11-05T08:58:58.369Z,0.57
2023-11-05T09:00:01.621Z,2.00
2023-11-05T09:01:04.835Z,1.14
2023-11-05T09:02:08.123Z,0.57
2023-11-05T09:03:11.482Z,1.43
2023-11-05T09:04:14.653Z,1.00
2023-11-05T09:05:17.897Z,0.57
2023-11-05T09:06:21.053Z,0.00
2023-11-05T09:07:24.474Z,1.00
2023-11-05T09:08:28.028Z,1.00
2023-11-05T09:09:31.412Z,1.43
2023-11-05T09:10:34.894Z,1.00
2023-11-05T09:11:38.213Z,1.86
2023-11-05T09:12:41.543Z,2.14
2023-11-05T09:13:45.012Z,0.57
2023-11-05T09:14:48.447Z,0.50
2023-11-05T09:15:51.900Z,0.00
2023-11-05T09:16:55.345Z,0.00
2023-11-05T09:17:58.614Z,1.00
2023-11-05T09:19:02.003Z,1.00
2023-11-05T09:20:05.485Z,0.71
2023-11-05T09:21:08.772Z,0.57
2023-11-05T09:22:12.367Z,0.33
2023-11-05T09:23:15.855Z,1.00
2023-11-05T09:24:19.546Z,1.00
2023-11-05T09:25:22.714Z,1.00
2023-11-05T09:26:26.124Z,1.17
2023-11-05T09:27:29.583Z,1.71
2023-11-05T09:28:33.303Z,1.67
2023-11-05T09:29:36.681Z,1.00
2023-11-05T09:30:40.189Z,0.57
2023-11-05T09:31:43.682Z,0.43
2023-11-05T09:32:47.219Z,1.00
2023-11-05T09:33:50.909Z,1.43
2023-11-05T09:34:54.479Z,1.57
2023-11-05T09:35:58.036Z,1.00
2023-11-05T09:37:01.462Z,0.57
2023-11-05T09:38:04.922Z,0.86
2023-11-05T09:39:08.511Z,1.14
2023-11-05T09:40:11.901Z,0.43
2023-11-05T09:41:15.270Z,1.00
2023-11-05T09:42:18.872Z,0.57
2023-11-05T09:43:22.259Z,0.43
2023-11-05T09:44:25.740Z,1.00
2023-11-05T09:45:29.291Z,1.29
2023-11-05T09:46:32.848Z,1.43
2023-11-05T09:47:36.299Z,1.14
2023-11-05T09:48:39.943Z,0.43
2023-11-05T09:49:43.292Z,0.50
2023-11-05T09:50:46.590Z,0.43
2023-11-05T09:51:50.268Z,1.00
2023-11-05T09:52:53.551Z,1.00
2023-11-05T09:53:56.940Z,0.57
2023-11-05T09:55:00.355Z,0.43
2023-11-05T09:56:03.983Z,1.43
2023-11-05T09:57:07.416Z,1.50
2023-11-05T09:58:11.058Z,1.00
2023-11-05T09:59:14.388Z,1.43
2023-11-05T10:00:17.762Z,2.86
2023-11-05T10:01:21.180Z,3.14
2023-11-05T10:02:24.668Z,1.71
2023-11-05T10:03:28.509Z,1.00
2023-11-05T10:04:32.177Z,1.71
2023-11-05T10:05:35.803Z,2.43
2023-11-05T10:06:39.108Z,2.14
2023-11-05T10:07:42.434Z,2.57
2023-11-05T10:08:45.888Z,2.00
2023-11-05T10:09:49.342Z,2.00
2023-11-05T10:10:52.566Z,0.86
2023-11-05T10:11:55.737Z,0.67
2023-11-05T10:12:58.868Z,1.00
2023-11-05T10:14:01.857Z,1.00
2023-11-05T10:15:05.101Z,1.00
2023-11-05T10:16:08.361Z,1.29
2023-11-05T10:17:11.597Z,1.57
2023-11-05T10:18:14.667Z,1.00
2023-11-05T10:19:18.019Z,1.33
2023-11-05T10:20:21.190Z,1.14
2023-11-05T10:21:24.251Z,0.00
2023-11-05T10:22:27.476Z,0.43
2023-11-05T10:23:30.812Z,1.00
2023-11-05T10:24:34.093Z,1.00
2023-11-05T10:25:37.701Z,1.00
2023-11-05T10:26:41.103Z,0.57
2023-11-05T10:27:44.586Z,0.71
2023-11-05T10:28:48.006Z,1.00
2023-11-05T10:29:51.478Z,0.43
2023-11-05T10:30:57.162Z,1.86
2023-11-05T10:31:59.469Z,2.12
2023-11-05T10:33:03.028Z,1.14
2023-11-05T10:34:06.609Z,0.43
2023-11-05T10:35:10.046Z,1.00
2023-11-05T10:36:13.495Z,1.00
2023-11-05T10:37:17.052Z,1.14
2023-11-05T10:38:20.924Z,0.57
2023-11-05T10:39:24.424Z,0.00
2023-11-05T10:40:28.046Z,0.00
2023-11-05T10:41:31.374Z,0.43
2023-11-05T10:42:34.972Z,1.86
2023-11-05T10:43:38.478Z,1.50
2023-11-05T10:44:42.052Z,0.86
2023-11-05T10:45:45.499Z,0.71
2023-11-05T10:46:49.054Z,0.00
2023-11-05T10:47:52.333Z,0.00
2023-11-05T10:48:55.740Z,0.00
2023-11-05T10:49:59.322Z,0.00
2023-11-05T10:51:02.688Z,0.57
2023-11-05T10:52:06.076Z,0.00
2023-11-05T10:53:09.471Z,0.00
2023-11-05T10:54:13.056Z,0.29
2023-11-05T10:55:16.711Z,1.00
2023-11-05T10:56:20.121Z,0.57
2023-11-05T10:57:23.723Z,0.86
2023-11-05T10:58:27.507Z,1.00
2023-11-05T10:59:31.007Z,0.00
2023-11-05T11:00:34.252Z,0.43
2023-11-05T11:01:37.653Z,1.00
2023-11-05T11:02:51.043Z,0.00
2023-11-05T11:03:45.565Z,0.50
2023-11-05T11:04:49.195Z,1.00
2023-11-05T11:05:52.873Z,0.75
2023-11-05T11:06:56.452Z,0.86
2023-11-05T11:08:01.869Z,1.14
2023-11-05T11:09:04.006Z,0.00
2023-11-05T11:10:07.533Z,0.00
2023-11-05T11:11:10.842Z,0.43
2023-11-05T11:12:14.091Z,0.67
2023-11-05T11:13:17.284Z,0.00
2023-11-05T11:14:20.464Z,0.33
2023-11-05T11:15:23.757Z,0.57
2023-11-05T11:16:27.043Z,0.86
2023-11-05T11:17:30.336Z,1.43
2023-11-05T11:18:33.547Z,1.57
2023-11-05T11:19:36.794Z,0.57
2023-11-05T11:20:41.334Z,0.00
2023-11-05T11:21:44.376Z,0.50
2023-11-05T11:22:47.703Z,0.57
2023-11-05T11:23:59.441Z,0.00
2023-11-05T11:25:02.722Z,0.00
2023-11-05T11:26:06.126Z,0.00
2023-11-05T11:27:09.402Z,0.00
2023-11-05T11:28:12.782Z,0.43
2023-11-05T11:29:15.965Z,0.29
2023-11-05T11:30:19.252Z,0.00
2023-11-05T11:31:22.449Z,0.00
2023-11-05T11:32:25.730Z,0.00
2023-11-05T11:33:29.378Z,0.00
2023-11-05T11:34:32.582Z,0.00
2023-11-05T11:35:35.773Z,0.00
2023-11-05T11:36:38.959Z,0.00
2023-11-05T11:37:42.149Z,0.71
2023-11-05T11:38:46.588Z,1.33
2023-11-05T11:39:49.830Z,0.00
2023-11-05T11:40:53.279Z,0.43
2023-11-05T11:41:56.593Z,1.00
2023-11-05T11:42:59.733Z,0.57
2023-11-05T11:44:03.100Z,0.00
2023-11-05T11:45:08.329Z,0.71
2023-11-05T11:46:10.782Z,1.50
2023-11-05T11:47:13.949Z,0.57
2023-11-05T11:48:17.229Z,0.00
2023-11-05T11:49:20.618Z,0.43
2023-11-05T11:50:23.906Z,0.57
2023-11-05T11:51:27.193Z,0.00
2023-11-05T11:52:30.375Z,0.00
2023-11-05T11:53:33.660Z,0.00
2023-11-05T11:54:36.953Z,0.00
2023-11-05T11:55:40.142Z,0.57
2023-11-05T11:56:43.405Z,0.14
2023-11-05T11:57:46.586Z,1.00
2023-11-05T11:58:49.880Z,0.00
2023-11-05T11:59:53.049Z,0.00
2023-11-05T12:00:56.336Z,0.33
2023-11-05T12:01:59.382Z,0.67
2023-11-05T12:03:02.609Z,0.00
2023-11-05T12:04:05.914Z,0.00
2023-11-05T12:05:09.241Z,0.43
2023-11-05T12:06:12.759Z,1.43
2023-11-05T12:07:16.248Z,0.71
2023-11-05T12:08:19.431Z,0.43
2023-11-05T12:09:22.628Z,1.33
2023-11-05T12:10:25.918Z,1.67
2023-11-05T12:11:29.186Z,1.00
2023-11-05T12:12:32.466Z,0.43
2023-11-05T12:13:35.896Z,0.00
2023-11-05T12:14:39.141Z,0.43
2023-11-05T12:15:42.522Z,0.00
2023-11-05T12:16:47.201Z,0.00
2023-11-05T12:17:50.109Z,0.00
2023-11-05T12:18:53.157Z,0.00
2023-11-05T12:19:56.394Z,0.00
2023-11-05T12:20:59.557Z,0.33
2023-11-05T12:22:02.763Z,0.57
2023-11-05T12:23:06.136Z,0.00
2023-11-05T12:24:09.510Z,0.29
2023-11-05T12:25:12.799Z,0.14
2023-11-05T12:26:16.283Z,0.00
2023-11-05T12:27:19.467Z,1.43
2023-11-05T12:28:23.563Z,1.00
2023-11-05T12:29:27.076Z,1.50
2023-11-05T12:30:30.343Z,1.14
2023-11-05T12:31:33.647Z,0.00
2023-11-05T12:32:36.888Z,0.43
2023-11-05T12:33:40.240Z,1.00
2023-11-05T12:34:43.548Z,0.71
2023-11-05T12:35:46.764Z,1.00
2023-11-05T12:36:49.945Z,1.33
2023-11-05T12:37:53.351Z,2.33
2023-11-05T12:38:56.517Z,1.43
2023-11-05T12:39:59.923Z,0.57
2023-11-05T12:41:03.431Z,0.50
2023-11-05T12:42:06.597Z,1.29
2023-11-05T12:43:09.669Z,1.17
2023-11-05T12:44:12.835Z,1.00
2023-11-05T12:45:16.119Z,1.00
2023-11-05T12:46:19.400Z,1.43
2023-11-05T12:47:22.585Z,2.00
2023-11-05T12:48:31.594Z,1.57
2023-11-05T12:49:29.954Z,1.50
2023-11-05T12:50:33.159Z,1.57
2023-11-05T12:51:36.338Z,1.00
2023-11-05T12:52:39.885Z,1.43
2023-11-05T12:53:43.112Z,1.57
2023-11-05T12:54:46.289Z,1.00
2023-11-05T12:55:49.381Z,1.00
2023-11-05T12:56:52.761Z,1.00
2023-11-05T12:57:55.849Z,1.43
2023-11-05T12:58:59.338Z,1.83
2023-11-05T13:00:02.610Z,2.00
2023-11-05T13:01:06.441Z,2.29
2023-11-05T13:02:10.308Z,2.00
2023-11-05T13:03:13.705Z,2.00
2023-11-05T13:04:17.268Z,2.43
2023-11-05T13:05:21.052Z,2.00
2023-11-05T13:06:24.503Z,1.43
2023-11-05T13:07:27.676Z,2.00
2023-11-05T13:08:30.934Z,2.00
2023-11-05T13:09:34.111Z,2.43
2023-11-05T13:10:37.438Z,3.00
2023-11-05T13:11:40.684Z,2.29
2023-11-05T13:12:43.864Z,1.43
2023-11-05T13:13:47.083Z,2.00
2023-11-05T13:14:50.404Z,1.33
2023-11-05T13:15:53.615Z,2.33
2023-11-05T13:16:56.717Z,2.33
2023-11-05T13:18:00.145Z,1.43
2023-11-05T13:19:03.655Z,2.00
2023-11-05T13:20:07.111Z,2.00
2023-11-05T13:21:10.551Z,2.71
2023-11-05T13:22:13.789Z,2.57
2023-11-05T13:23:17.318Z,2.00
2023-11-05T13:24:20.912Z,1.71
2023-11-05T13:25:24.224Z,2.00
2023-11-05T13:26:27.593Z,1.67
2023-11-05T13:27:31.074Z,1.33
2023-11-05T13:28:34.377Z,2.00
2023-11-05T13:29:37.749Z,2.00
2023-11-05T13:30:40.666Z,1.57
2023-11-05T13:31:43.963Z,1.33
2023-11-05T13:32:47.456Z,1.14
2023-11-05T13:33:50.802Z,1.00
2023-11-05T13:34:54.097Z,1.67
2023-11-05T13:35:57.556Z,2.57
2023-11-05T13:37:01.057Z,2.00
2023-11-05T13:38:07.601Z,1.57
2023-11-05T13:39:09.266Z,1.50
2023-11-05T13:40:12.546Z,2.00
2023-11-05T13:41:16.022Z,2.00
2023-11-05T13:42:19.410Z,1.57
2023-11-05T13:43:23.078Z,1.00
2023-11-05T13:44:26.592Z,2.50
2023-11-05T13:45:29.857Z,3.57
2023-11-05T13:46:33.497Z,3.00
2023-11-05T13:47:36.937Z,2.57
2023-11-05T13:48:40.445Z,1.71
2023-11-05T13:49:43.986Z,2.12
2023-11-05T13:50:47.114Z,2.00
2023-11-05T13:51:50.363Z,2.83
2023-11-05T13:52:53.690Z,4.00
2023-11-05T13:53:56.932Z,3.00
2023-11-05T13:55:00.472Z,2.57
2023-11-05T13:56:03.950Z,2.43
2023-11-05T13:57:07.333Z,3.00
2023-11-05T13:58:10.714Z,3.57
2023-11-05T13:59:13.754Z,3.00
2023-11-05T14:00:16.997Z,2.57
2023-11-05T14:01:20.374Z,1.57
2023-11-05T14:02:23.863Z,1.43
2023-11-05T14:03:27.390Z,2.43